createdAt,value
2023-05-08T00:02:19.302Z,68.56
2023-05-08T00:04:46.374Z,68.42
2023-05-08T00:07:13.451Z,68.88
2023-05-08T00:09:40.702Z,68.90
2023-05-08T00:12:08.180Z,69.00
2023-05-08T00:14:35.290Z,69.46
2023-05-08T00:17:03.118Z,68.99
2023-05-08T00:19:30.315Z,69.45
2023-05-08T00:21:57.451Z,69.45
2023-05-08T00:24:24.719Z,69.71
2023-05-08T00:26:51.782Z,69.75
2023-05-08T00:29:19.018Z,69.84
2023-05-08T00:31:46.242Z,69.47
2023-05-08T00:34:13.604Z,70.29
2023-05-08T00:36:40.672Z,69.93
2023-05-08T00:39:08.161Z,70.97
2023-05-08T00:41:35.407Z,71.11
2023-05-08T00:44:02.694Z,70.74
2023-05-08T00:46:30.186Z,71.12
2023-05-08T00:48:57.605Z,69.84
2023-05-08T00:51:24.958Z,70.90
2023-05-08T00:53:52.003Z,70.89
2023-05-08T00:56:21.300Z,70.60
2023-05-08T00:58:48.712Z,70.63
2023-05-08T01:01:16.333Z,71.33
2023-05-08T01:03:45.083Z,70.95
2023-05-08T01:06:12.567Z,70.46
2023-05-08T01:08:39.817Z,71.42
2023-05-08T01:11:25.259Z,71.64
2023-05-08T01:14:19.417Z,71.37
2023-05-08T01:17:25.505Z,71.28
2023-05-08T01:20:13.205Z,71.14
2023-05-08T01:22:58.466Z,70.64
2023-05-08T01:25:34.376Z,70.49
2023-05-08T01:28:01.733Z,71.68
2023-05-08T01:30:56.655Z,71.40
2023-05-08T01:33:30.841Z,71.50
2023-05-08T01:36:06.061Z,71.52
2023-05-08T01:38:49.414Z,70.44
2023-05-08T01:41:24.302Z,71.31
2023-05-08T01:43:57.686Z,71.66
2023-05-08T01:46:27.833Z,70.40
2023-05-08T01:49:08.787Z,71.13
2023-05-08T01:51:46.155Z,71.69
2023-05-08T01:54:20.258Z,71.83
2023-05-08T01:56:48.907Z,71.50
2023-05-08T01:59:20.980Z,70.77
2023-05-08T02:01:51.481Z,70.58
2023-05-08T02:04:20.864Z,70.81
2023-05-08T02:06:48.278Z,71.03
2023-05-08T02:09:16.732Z,70.83
2023-05-08T02:11:46.144Z,71.64
2023-05-08T02:14:20.085Z,71.97
2023-05-08T02:16:50.716Z,71.03
2023-05-08T02:19:20.717Z,70.86
2023-05-08T02:21:50.071Z,70.96
2023-05-08T02:24:17.929Z,70.91
2023-05-08T02:26:46.609Z,70.65
2023-05-08T02:29:14.645Z,72.21
2023-05-08T02:31:42.861Z,71.73
2023-05-08T02:34:11.520Z,71.10
2023-05-08T02:36:39.869Z,71.95
2023-05-08T02:39:11.123Z,71.20
2023-05-08T02:41:41.468Z,72.19
2023-05-08T02:44:09.594Z,71.44
2023-05-08T02:46:46.480Z,71.78
2023-05-08T02:49:26.542Z,72.42
2023-05-08T02:52:49.247Z,71.72
2023-05-08T02:55:53.530Z,71.48
2023-05-08T02:59:03.692Z,71.59
2023-05-08T03:02:06.062Z,71.05
2023-05-08T03:05:00.124Z,71.06
2023-05-08T03:07:49.579Z,71.53
2023-05-08T03:10:41.741Z,71.66
2023-05-08T03:13:32.331Z,71.34
2023-05-08T03:16:22.445Z,71.89
2023-05-08T03:19:42.197Z,72.67
2023-05-08T03:22:31.419Z,72.11
2023-05-08T03:25:22.165Z,72.63
2023-05-08T03:28:11.904Z,72.80
2023-05-08T03:31:01.659Z,72.55
2023-05-08T03:33:49.640Z,73.12
2023-05-08T03:36:37.751Z,73.22
2023-05-08T03:39:25.530Z,72.97
2023-05-08T03:42:13.010Z,72.85
2023-05-08T03:45:00.171Z,72.31
2023-05-08T03:47:47.901Z,73.33
2023-05-08T03:50:36.027Z,72.86
2023-05-08T03:53:24.230Z,72.31
2023-05-08T03:56:11.446Z,72.47
2023-05-08T03:59:07.475Z,73.03
2023-05-08T04:02:02.068Z,72.38
2023-05-08T04:05:04.227Z,73.21
2023-05-08T04:07:56.251Z,72.03
2023-05-08T04:11:11.257Z,72.15
2023-05-08T04:14:06.027Z,72.41
2023-05-08T04:16:59.761Z,72.81
2023-05-08T04:19:50.219Z,71.84
2023-05-08T04:22:40.885Z,74.51
2023-05-08T04:25:30.949Z,74.12
2023-05-08T04:28:18.978Z,73.48
2023-05-08T04:31:06.539Z,72.98
2023-05-08T04:33:55.866Z,72.35
2023-05-08T04:36:43.090Z,72.26
2023-05-08T04:39:30.199Z,73.00
2023-05-08T04:42:17.271Z,72.87
2023-05-08T04:45:04.426Z,72.81
2023-05-08T04:47:52.263Z,72.81
2023-05-08T04:50:39.713Z,71.57
2023-05-08T04:53:27.162Z,71.80
2023-05-08T04:56:14.185Z,71.40
2023-05-08T04:59:01.410Z,71.29
2023-05-08T05:01:48.540Z,70.92
2023-05-08T05:04:35.705Z,71.51
2023-05-08T05:07:24.529Z,71.17
2023-05-08T05:10:11.644Z,71.17
2023-05-08T05:12:59.049Z,70.92
2023-05-08T05:15:46.663Z,69.92
2023-05-08T05:18:34.958Z,69.27
2023-05-08T05:21:21.984Z,69.10
2023-05-08T05:24:09.308Z,68.72
2023-05-08T05:26:56.553Z,67.99
2023-05-08T05:29:43.651Z,67.23
2023-05-08T05:32:30.673Z,65.70
2023-05-08T05:35:17.940Z,65.38
2023-05-08T05:38:05.126Z,64.26
2023-05-08T05:40:52.479Z,63.93
2023-05-08T05:43:39.995Z,63.74
2023-05-08T05:46:28.968Z,62.92
2023-05-08T05:49:16.298Z,62.62
2023-05-08T05:52:03.580Z,61.94
2023-05-08T05:54:50.758Z,61.32
2023-05-08T05:57:37.814Z,60.87
2023-05-08T06:00:25.978Z,59.94
2023-05-08T06:03:16.098Z,60.32
2023-05-08T06:06:03.912Z,60.26
2023-05-08T06:08:51.290Z,59.06
2023-05-08T06:11:38.593Z,58.69
2023-05-08T06:14:25.885Z,58.97
2023-05-08T06:17:13.378Z,58.91
2023-05-08T06:20:00.537Z,58.76
2023-05-08T06:22:49.031Z,57.84
2023-05-08T06:25:36.242Z,57.83
2023-05-08T06:28:23.275Z,57.85
2023-05-08T06:31:10.387Z,58.14
2023-05-08T06:33:57.309Z,57.48
2023-05-08T06:36:44.338Z,57.76
2023-05-08T06:39:31.230Z,57.57
2023-05-08T06:42:18.738Z,57.42
2023-05-08T06:45:06.665Z,57.25
2023-05-08T06:47:54.014Z,56.62
2023-05-08T06:50:41.093Z,56.67
2023-05-08T06:53:28.302Z,57.24
2023-05-08T06:56:15.551Z,56.21
2023-05-08T06:59:08.267Z,56.50
2023-05-08T07:01:55.678Z,56.55
2023-05-08T07:04:43.116Z,56.36
2023-05-08T07:07:30.053Z,56.06
2023-05-08T07:10:17.225Z,56.41
2023-05-08T07:13:04.230Z,55.45
2023-05-08T07:15:55.164Z,54.92
2023-05-08T07:18:42.535Z,55.01
2023-05-08T07:21:30.825Z,55.46
2023-05-08T07:24:17.817Z,55.19
2023-05-08T07:27:05.312Z,54.22
2023-05-08T07:29:52.343Z,54.18
2023-05-08T07:32:39.601Z,54.69
2023-05-08T07:35:28.078Z,53.50
2023-05-08T07:38:15.399Z,54.04
2023-05-08T07:41:02.511Z,54.04
2023-05-08T07:43:49.841Z,53.28
2023-05-08T07:46:40.756Z,54.23
2023-05-08T07:49:27.807Z,53.39
2023-05-08T07:52:14.805Z,52.90
2023-05-08T07:55:01.819Z,53.37
2023-05-08T07:57:56.469Z,52.81
2023-05-08T08:00:43.706Z,52.37
2023-05-08T08:03:31.189Z,53.16
2023-05-08T08:06:18.690Z,52.51
2023-05-08T08:09:06.095Z,51.47
2023-05-08T08:11:53.209Z,52.38
2023-05-08T08:14:40.242Z,51.47
2023-05-08T08:17:28.932Z,50.92
2023-05-08T08:20:16.584Z,50.66
2023-05-08T08:23:03.766Z,50.12
2023-05-08T08:25:50.885Z,50.10
2023-05-08T08:28:37.858Z,50.06
2023-05-08T08:31:25.026Z,49.38
2023-05-08T08:34:12.309Z,49.39
2023-05-08T08:36:59.879Z,48.90
2023-05-08T08:39:46.977Z,49.29
2023-05-08T08:42:34.201Z,48.78
2023-05-08T08:45:21.971Z,48.39
2023-05-08T08:48:12.540Z,48.22
2023-05-08T08:51:03.237Z,48.23
2023-05-08T08:53:56.427Z,47.36
2023-05-08T08:56:43.905Z,47.65
2023-05-08T08:59:33.182Z,47.53
2023-05-08T09:02:26.608Z,46.91
2023-05-08T09:05:14.264Z,46.74
2023-05-08T09:08:01.574Z,47.12
2023-05-08T09:10:48.703Z,46.86
2023-05-08T09:13:36.031Z,46.25
2023-05-08T09:16:23.391Z,46.44
2023-05-08T09:19:10.767Z,46.38
2023-05-08T09:21:58.073Z,46.07
2023-05-08T09:24:45.152Z,45.95
2023-05-08T09:27:41.168Z,45.94
2023-05-08T09:30:33.405Z,45.51
2023-05-08T09:33:21.720Z,45.59
2023-05-08T09:36:09.101Z,45.66
2023-05-08T09:39:00.491Z,45.40
2023-05-08T09:41:47.790Z,45.26
2023-05-08T09:44:34.892Z,45.01
2023-05-08T09:47:32.850Z,44.94
2023-05-08T09:50:30.417Z,44.70
2023-05-08T09:53:17.488Z,44.23
2023-05-08T09:56:08.035Z,43.41
2023-05-08T09:59:08.553Z,43.33
2023-05-08T10:01:56.658Z,43.02
2023-05-08T10:04:57.511Z,43.60
2023-05-08T10:07:55.186Z,43.09
2023-05-08T10:10:50.058Z,42.72
2023-05-08T10:13:37.107Z,42.70
2023-05-08T10:16:25.098Z,42.74
2023-05-08T10:19:19.769Z,42.38
2023-05-08T10:22:14.654Z,42.34
2023-05-08T10:25:04.395Z,41.59
2023-05-08T10:28:01.452Z,41.71
2023-05-08T10:30:50.953Z,40.88
2023-05-08T10:33:41.375Z,40.90
2023-05-08T10:36:30.974Z,41.46
2023-05-08T10:39:19.116Z,40.67
2023-05-08T10:42:07.148Z,40.11
2023-05-08T10:44:54.626Z,39.82
2023-05-08T10:48:01.863Z,40.01
2023-05-08T10:50:57.902Z,39.49
2023-05-08T10:54:04.098Z,39.34
2023-05-08T10:56:51.138Z,39.10
2023-05-08T10:59:42.412Z,38.64
2023-05-08T11:02:29.566Z,39.04
2023-05-08T11:05:34.771Z,38.84
2023-05-08T11:08:21.867Z,38.85
2023-05-08T11:11:35.920Z,38.73
2023-05-08T11:14:29.593Z,38.72
2023-05-08T11:17:16.596Z,37.83
2023-05-08T11:20:16.769Z,38.13
2023-05-08T11:23:07.837Z,38.43
2023-05-08T11:26:05.102Z,37.57
2023-05-08T11:28:57.046Z,37.54
2023-05-08T11:31:44.588Z,37.55
2023-05-08T11:34:56.479Z,37.19
2023-05-08T11:37:44.594Z,36.97
2023-05-08T11:41:09.189Z,36.80
2023-05-08T11:43:58.784Z,36.76
2023-05-08T11:46:58.197Z,37.09
2023-05-08T11:49:46.921Z,36.69
2023-05-08T11:52:38.701Z,36.86
2023-05-08T11:55:31.177Z,36.49
2023-05-08T11:58:18.070Z,36.43
2023-05-08T12:01:07.051Z,36.20
2023-05-08T12:03:54.187Z,36.35
2023-05-08T12:06:41.484Z,36.52
2023-05-08T12:09:34.050Z,36.45
2023-05-08T12:12:21.160Z,35.81
2023-05-08T12:15:11.156Z,35.68
2023-05-08T12:17:58.721Z,36.15
2023-05-08T12:20:45.662Z,35.83
2023-05-08T12:23:32.990Z,35.51
2023-05-08T12:26:20.953Z,35.31
2023-05-08T12:29:15.050Z,35.33
2023-05-08T12:32:02.016Z,35.32
2023-05-08T12:34:49.310Z,34.64
2023-05-08T12:37:56.835Z,35.14
2023-05-08T12:40:46.833Z,34.87
2023-05-08T12:43:33.823Z,34.41
2023-05-08T12:46:21.792Z,34.53
2023-05-08T12:49:08.680Z,34.10
2023-05-08T12:51:55.793Z,34.38
2023-05-08T12:54:52.714Z,33.68
2023-05-08T12:57:39.898Z,33.64
2023-05-08T13:00:27.485Z,33.34
2023-05-08T13:03:15.741Z,33.20
2023-05-08T13:06:04.549Z,32.21
2023-05-08T13:08:56.740Z,32.29
2023-05-08T13:11:51.010Z,32.12
2023-05-08T13:14:38.078Z,31.83
2023-05-08T13:17:25.114Z,31.48
2023-05-08T13:20:12.364Z,31.75
2023-05-08T13:22:59.393Z,31.45
2023-05-08T13:25:46.753Z,30.96
2023-05-08T13:28:33.679Z,31.59
2023-05-08T13:31:20.973Z,31.26
2023-05-08T13:34:07.908Z,30.41
2023-05-08T13:36:55.082Z,31.01
2023-05-08T13:39:42.024Z,30.79
2023-05-08T13:42:29.194Z,31.27
2023-05-08T13:45:16.498Z,30.56
2023-05-08T13:48:04.239Z,30.25
2023-05-08T13:50:51.318Z,30.72
2023-05-08T13:53:38.362Z,30.37
2023-05-08T13:56:25.608Z,30.03
2023-05-08T13:59:12.958Z,30.41
2023-05-08T14:01:59.871Z,30.35
2023-05-08T14:04:47.172Z,30.40
2023-05-08T14:07:34.133Z,30.41
2023-05-08T14:10:21.237Z,31.03
2023-05-08T14:13:08.189Z,30.46
2023-05-08T14:15:55.476Z,31.10
2023-05-08T14:18:42.610Z,30.93
2023-05-08T14:21:29.850Z,30.54
2023-05-08T14:24:16.933Z,31.00
2023-05-08T14:27:04.412Z,31.14
2023-05-08T14:29:52.772Z,31.34
2023-05-08T14:32:40.225Z,31.04
2023-05-08T14:35:29.112Z,31.97
2023-05-08T14:38:16.112Z,31.81
2023-05-08T14:41:04.687Z,32.69
2023-05-08T14:43:52.076Z,32.75
2023-05-08T14:46:38.973Z,32.32
2023-05-08T14:49:36.727Z,32.37
2023-05-08T14:52:25.695Z,33.03
2023-05-08T14:55:13.137Z,32.46
2023-05-08T14:58:00.369Z,32.94
2023-05-08T15:00:47.665Z,33.00
2023-05-08T15:03:34.791Z,33.10
2023-05-08T15:06:22.192Z,33.67
2023-05-08T15:09:09.801Z,33.76
2023-05-08T15:11:57.510Z,34.29
2023-05-08T15:14:44.572Z,34.22
2023-05-08T15:17:31.705Z,34.68
2023-05-08T15:20:18.727Z,34.55
2023-05-08T15:23:05.731Z,34.44
2023-05-08T15:25:53.121Z,34.77
2023-05-08T15:28:40.381Z,34.95
2023-05-08T15:31:27.471Z,35.21
2023-05-08T15:34:15.044Z,34.79
2023-05-08T15:37:02.012Z,35.69
2023-05-08T15:39:49.220Z,35.35
2023-05-08T15:42:36.197Z,35.00
2023-05-08T15:45:23.435Z,34.83
2023-05-08T15:48:10.506Z,35.50
2023-05-08T15:50:57.702Z,34.88
2023-05-08T15:53:44.572Z,34.83
2023-05-08T15:56:31.829Z,35.23
2023-05-08T15:59:18.892Z,34.88
2023-05-08T16:02:05.940Z,35.52
2023-05-08T16:04:53.067Z,35.36
2023-05-08T16:07:40.653Z,35.59
2023-05-08T16:10:28.498Z,35.47
2023-05-08T16:13:15.527Z,34.73
2023-05-08T16:16:02.536Z,34.37
2023-05-08T16:18:49.918Z,34.76
2023-05-08T16:21:36.929Z,34.07
2023-05-08T16:24:24.291Z,33.61
2023-05-08T16:27:11.723Z,34.27
2023-05-08T16:29:58.830Z,33.63
2023-05-08T16:32:45.770Z,33.77
2023-05-08T16:35:33.276Z,34.45
2023-05-08T16:38:20.268Z,33.83
2023-05-08T16:41:07.426Z,33.85
2023-05-08T16:43:54.403Z,34.48
2023-05-08T16:46:41.406Z,34.85
2023-05-08T16:49:28.371Z,35.30
2023-05-08T16:52:15.394Z,34.95
2023-05-08T16:55:02.306Z,34.82
2023-05-08T16:57:49.531Z,35.71
2023-05-08T17:00:36.977Z,35.80
2023-05-08T17:03:24.633Z,36.25
2023-05-08T17:06:11.726Z,36.32
2023-05-08T17:08:58.760Z,36.55
2023-05-08T17:11:45.767Z,36.43
2023-05-08T17:14:32.827Z,36.52
2023-05-08T17:17:19.849Z,36.99
2023-05-08T17:20:06.731Z,36.66
2023-05-08T17:22:54.630Z,36.87
2023-05-08T17:25:43.004Z,37.71
2023-05-08T17:28:29.886Z,37.90
2023-05-08T17:31:17.833Z,38.16
2023-05-08T17:34:05.043Z,37.92
2023-05-08T17:36:54.428Z,38.58
2023-05-08T17:39:42.663Z,38.71
2023-05-08T17:42:29.728Z,38.62
2023-05-08T17:45:17.422Z,39.31
2023-05-08T17:48:04.741Z,39.87
2023-05-08T17:50:51.828Z,40.01
2023-05-08T17:53:39.214Z,40.71
2023-05-08T17:56:26.537Z,41.01
2023-05-08T17:59:13.723Z,41.43
2023-05-08T18:02:00.730Z,42.50
2023-05-08T18:04:47.747Z,42.26
2023-05-08T18:07:35.038Z,43.21
2023-05-08T18:10:22.042Z,43.30
2023-05-08T18:13:09.047Z,44.51
2023-05-08T18:15:59.516Z,44.23
2023-05-08T18:18:47.626Z,45.53
2023-05-08T18:21:35.095Z,45.73
2023-05-08T18:24:22.460Z,45.38
2023-05-08T18:27:09.429Z,45.58
2023-05-08T18:29:56.410Z,46.04
2023-05-08T18:32:43.680Z,46.35
2023-05-08T18:35:30.718Z,47.65
2023-05-08T18:38:17.884Z,47.30
2023-05-08T18:41:06.199Z,48.33
2023-05-08T18:43:53.756Z,48.34
2023-05-08T18:46:40.985Z,47.93
2023-05-08T18:49:28.185Z,49.08
2023-05-08T18:52:15.333Z,49.37
2023-05-08T18:55:02.496Z,49.77
2023-05-08T18:57:49.630Z,49.92
2023-05-08T19:00:37.171Z,50.19
2023-05-08T19:03:24.506Z,49.77
2023-05-08T19:06:11.708Z,50.37
2023-05-08T19:08:59.195Z,51.11
2023-05-08T19:11:46.205Z,50.85
2023-05-08T19:14:33.176Z,51.86
2023-05-08T19:17:20.175Z,52.13
2023-05-08T19:20:07.391Z,51.90
2023-05-08T19:22:54.489Z,52.08
2023-05-08T19:25:41.656Z,52.30
2023-05-08T19:28:28.750Z,52.84
2023-05-08T19:31:15.829Z,53.21
2023-05-08T19:34:05.758Z,53.26
2023-05-08T19:36:52.756Z,53.80
2023-05-08T19:39:39.717Z,54.53
2023-05-08T19:42:26.899Z,54.46
2023-05-08T19:45:14.074Z,54.91
2023-05-08T19:48:01.310Z,55.38
2023-05-08T19:50:48.428Z,55.95
2023-05-08T19:53:35.843Z,55.89
2023-05-08T19:56:22.956Z,56.46
2023-05-08T19:59:10.053Z,56.36
2023-05-08T20:01:57.156Z,57.03
2023-05-08T20:05:04.266Z,56.81
2023-05-08T20:07:51.782Z,56.96
2023-05-08T20:10:38.916Z,57.23
2023-05-08T20:13:26.199Z,57.47
2023-05-08T20:16:14.001Z,57.65
2023-05-08T20:19:01.111Z,57.83
2023-05-08T20:21:48.241Z,58.12
2023-05-08T20:24:35.384Z,58.30
2023-05-08T20:27:22.837Z,58.48
2023-05-08T20:30:09.827Z,58.14
2023-05-08T20:32:56.942Z,58.92
2023-05-08T20:35:44.015Z,58.86
2023-05-08T20:38:31.380Z,59.21
2023-05-08T20:41:18.335Z,59.35
2023-05-08T20:44:05.318Z,59.32
2023-05-08T20:46:52.376Z,59.58
2023-05-08T20:49:39.593Z,59.83
2023-05-08T20:52:26.776Z,60.03
2023-05-08T20:55:14.146Z,59.90
2023-05-08T20:58:01.398Z,60.36
2023-05-08T21:00:48.582Z,60.48
2023-05-08T21:03:35.567Z,60.71
2023-05-08T21:06:22.764Z,60.84
2023-05-08T21:09:09.831Z,61.01
2023-05-08T21:11:57.033Z,60.58
2023-05-08T21:14:43.980Z,61.06
2023-05-08T21:17:31.174Z,61.37
2023-05-08T21:20:18.197Z,61.59
2023-05-08T21:23:05.214Z,61.98
2023-05-08T21:25:52.177Z,61.71
2023-05-08T21:28:39.389Z,62.18
2023-05-08T21:31:26.448Z,61.89
2023-05-08T21:34:13.712Z,62.04
2023-05-08T21:37:00.668Z,62.07
2023-05-08T21:39:47.963Z,62.19
2023-05-08T21:42:34.841Z,62.10
2023-05-08T21:45:22.135Z,62.49
2023-05-08T21:48:09.091Z,62.87
2023-05-08T21:50:56.194Z,62.58
2023-05-08T21:53:43.196Z,63.31
2023-05-08T21:56:30.384Z,62.91
2023-05-08T21:58:57.408Z,62.91
2023-05-08T22:01:24.473Z,63.65
2023-05-08T22:03:51.734Z,63.77
2023-05-08T22:06:18.837Z,63.75
2023-05-08T22:08:46.090Z,63.75
2023-05-08T22:11:33.245Z,64.45
2023-05-08T22:14:20.289Z,63.74
2023-05-08T22:17:07.278Z,64.14
2023-05-08T22:19:54.338Z,64.24
2023-05-08T22:22:41.310Z,64.29
2023-05-08T22:25:28.979Z,63.89
2023-05-08T22:28:16.102Z,63.98
2023-05-08T22:31:03.379Z,65.05
2023-05-08T22:33:50.539Z,64.09
2023-05-08T22:36:37.521Z,64.75
2023-05-08T22:39:28.721Z,64.58
2023-05-08T22:42:16.088Z,64.92
2023-05-08T22:45:03.789Z,64.63
2023-05-08T22:47:51.286Z,64.95
2023-05-08T22:50:38.489Z,64.58
2023-05-08T22:53:25.595Z,65.21
2023-05-08T22:56:12.874Z,64.69
2023-05-08T22:59:00.619Z,65.35
2023-05-08T23:01:47.790Z,65.56
2023-05-08T23:04:34.853Z,65.26
2023-05-08T23:07:22.473Z,64.92
2023-05-08T23:10:09.429Z,65.26
2023-05-08T23:12:56.643Z,65.59
2023-05-08T23:15:43.639Z,65.37
2023-05-08T23:18:30.784Z,65.31
2023-05-08T23:21:18.003Z,65.83
2023-05-08T23:24:05.089Z,66.22
2023-05-08T23:26:52.089Z,66.04
2023-05-08T23:29:39.191Z,66.14
2023-05-08T23:32:26.453Z,65.86
2023-05-08T23:35:13.954Z,66.32
2023-05-08T23:38:01.292Z,66.62
2023-05-08T23:40:48.803Z,66.67
2023-05-08T23:43:35.778Z,66.56
2023-05-08T23:46:22.969Z,65.93
2023-05-08T23:49:10.213Z,66.26
2023-05-08T23:51:57.260Z,66.54
2023-05-08T23:54:44.544Z,66.56
2023-05-08T23:57:31.640Z,67.06
